sensor_id;sensor_type;location;lat;lon;timestamp;temperature;humidity
74458;SHT31;62896;51.032;3.712;2023-11-19T00:01:44;13.6;100
74458;SHT31;62896;51.032;3.712;2023-11-19T00:05:04;13.6;100
74458;SHT31;62896;51.032;3.712;2023-11-19T00:08:24;13.6;100
74458;SHT31;62896;51.032;3.712;2023-11-19T00:11:44;13.6;100
74458;SHT31;62896;51.032;3.712;2023-11-19T00:15:05;13.6;100
74458;SHT31;62896;51.032;3.712;2023-11-19T00:18:24;13.6;100
74458;SHT31;62896;51.032;3.712;2023-11-19T00:21:44;13.7;100
74458;SHT31;62896;51.032;3.712;2023-11-19T00:25:05;13.7;100
74458;SHT31;62896;51.032;3.712;2023-11-19T00:28:24;13.7;100
74458;SHT31;62896;51.032;3.712;2023-11-19T00:31:44;13.7;99
74458;SHT31;62896;51.032;3.712;2023-11-19T00:35:04;13.7;99
74458;SHT31;62896;51.032;3.712;2023-11-19T00:38:24;13.7;99
74458;SHT31;62896;51.032;3.712;2023-11-19T00:41:44;13.7;99
74458;SHT31;62896;51.032;3.712;2023-11-19T00:45:05;13.7;99
74458;SHT31;62896;51.032;3.712;2023-11-19T00:48:24;13.7;99
74458;SHT31;62896;51.032;3.712;2023-11-19T00:51:44;13.6;99
74458;SHT31;62896;51.032;3.712;2023-11-19T00:55:05;13.6;99
74458;SHT31;62896;51.032;3.712;2023-11-19T00:58:24;13.6;99
74458;SHT31;62896;51.032;3.712;2023-11-19T01:01:44;13.5;99
74458;SHT31;62896;51.032;3.712;2023-11-19T01:05:07;13.5;99
74458;SHT31;62896;51.032;3.712;2023-11-19T01:08:24;13.5;99
74458;SHT31;62896;51.032;3.712;2023-11-19T01:11:44;13.4;99
74458;SHT31;62896;51.032;3.712;2023-11-19T01:15:05;13.4;99
74458;SHT31;62896;51.032;3.712;2023-11-19T01:18:24;13.4;99
74458;SHT31;62896;51.032;3.712;2023-11-19T01:21:44;13.4;98
74458;SHT31;62896;51.032;3.712;2023-11-19T01:25:05;13.4;98
74458;SHT31;62896;51.032;3.712;2023-11-19T01:28:24;13.4;98
74458;SHT31;62896;51.032;3.712;2023-11-19T01:31:45;13.4;97
74458;SHT31;62896;51.032;3.712;2023-11-19T01:35:04;13.4;97
74458;SHT31;62896;51.032;3.712;2023-11-19T01:38:24;13.4;97
74458;SHT31;62896;51.032;3.712;2023-11-19T01:41:44;13.3;97
74458;SHT31;62896;51.032;3.712;2023-11-19T01:45:05;13.3;97
74458;SHT31;62896;51.032;3.712;2023-11-19T01:48:24;13.3;97
74458;SHT31;62896;51.032;3.712;2023-11-19T01:51:45;13.1;98
74458;SHT31;62896;51.032;3.712;2023-11-19T01:55:04;13.1;98
74458;SHT31;62896;51.032;3.712;2023-11-19T01:58:24;13.1;98
74458;SHT31;62896;51.032;3.712;2023-11-19T02:01:44;13;98
74458;SHT31;62896;51.032;3.712;2023-11-19T02:05:05;13;98
74458;SHT31;62896;51.032;3.712;2023-11-19T02:08:24;13;98
74458;SHT31;62896;51.032;3.712;2023-11-19T02:11:44;12.9;98
74458;SHT31;62896;51.032;3.712;2023-11-19T02:15:05;12.9;98
74458;SHT31;62896;51.032;3.712;2023-11-19T02:18:25;12.9;98
74458;SHT31;62896;51.032;3.712;2023-11-19T02:21:44;12.8;98
74458;SHT31;62896;51.032;3.712;2023-11-19T02:25:06;12.8;98
74458;SHT31;62896;51.032;3.712;2023-11-19T02:28:24;12.8;98
74458;SHT31;62896;51.032;3.712;2023-11-19T02:31:44;12.8;97
74458;SHT31;62896;51.032;3.712;2023-11-19T02:35:05;12.8;97
74458;SHT31;62896;51.032;3.712;2023-11-19T02:38:24;12.8;97
74458;SHT31;62896;51.032;3.712;2023-11-19T02:41:44;12.8;98
74458;SHT31;62896;51.032;3.712;2023-11-19T02:45:05;12.8;98
74458;SHT31;62896;51.032;3.712;2023-11-19T02:48:24;12.8;98
74458;SHT31;62896;51.032;3.712;2023-11-19T02:51:44;12.8;97
74458;SHT31;62896;51.032;3.712;2023-11-19T02:55:05;12.8;97
74458;SHT31;62896;51.032;3.712;2023-11-19T02:58:24;12.8;97
74458;SHT31;62896;51.032;3.712;2023-11-19T03:01:44;12.7;97
74458;SHT31;62896;51.032;3.712;2023-11-19T03:05:05;12.7;97
74458;SHT31;62896;51.032;3.712;2023-11-19T03:08:24;12.7;97
74458;SHT31;62896;51.032;3.712;2023-11-19T03:11:44;12.8;97
74458;SHT31;62896;51.032;3.712;2023-11-19T03:15:05;12.8;97
74458;SHT31;62896;51.032;3.712;2023-11-19T03:18:24;12.8;97
74458;SHT31;62896;51.032;3.712;2023-11-19T03:21:44;12.7;96
74458;SHT31;62896;51.032;3.712;2023-11-19T03:25:05;12.7;96
74458;SHT31;62896;51.032;3.712;2023-11-19T03:28:24;12.7;96
74458;SHT31;62896;51.032;3.712;2023-11-19T03:31:44;12.5;96
74458;SHT31;62896;51.032;3.712;2023-11-19T03:35:05;12.5;96
74458;SHT31;62896;51.032;3.712;2023-11-19T03:38:25;12.5;96
74458;SHT31;62896;51.032;3.712;2023-11-19T03:41:45;12.4;95
74458;SHT31;62896;51.032;3.712;2023-11-19T03:45:05;12.4;95
74458;SHT31;62896;51.032;3.712;2023-11-19T03:48:25;12.4;95
74458;SHT31;62896;51.032;3.712;2023-11-19T03:51:45;12.4;95
74458;SHT31;62896;51.032;3.712;2023-11-19T03:55:05;12.4;95
74458;SHT31;62896;51.032;3.712;2023-11-19T03:58:25;12.4;95
74458;SHT31;62896;51.032;3.712;2023-11-19T04:01:45;12.3;95
74458;SHT31;62896;51.032;3.712;2023-11-19T04:05:05;12.3;95
74458;SHT31;62896;51.032;3.712;2023-11-19T04:08:25;12.3;95
74458;SHT31;62896;51.032;3.712;2023-11-19T04:11:45;12.2;95
74458;SHT31;62896;51.032;3.712;2023-11-19T04:15:05;12.2;95
74458;SHT31;62896;51.032;3.712;2023-11-19T04:18:25;12.2;95
74458;SHT31;62896;51.032;3.712;2023-11-19T04:21:45;12.1;94
74458;SHT31;62896;51.032;3.712;2023-11-19T04:25:05;12.1;94
74458;SHT31;62896;51.032;3.712;2023-11-19T04:28:25;12.1;94
74458;SHT31;62896;51.032;3.712;2023-11-19T04:31:45;12;94
74458;SHT31;62896;51.032;3.712;2023-11-19T04:35:05;12;94
74458;SHT31;62896;51.032;3.712;2023-11-19T04:38:25;12;94
74458;SHT31;62896;51.032;3.712;2023-11-19T04:41:46;11.9;94
74458;SHT31;62896;51.032;3.712;2023-11-19T04:45:05;11.9;94
74458;SHT31;62896;51.032;3.712;2023-11-19T04:48:25;11.9;94
74458;SHT31;62896;51.032;3.712;2023-11-19T04:51:45;12;92
74458;SHT31;62896;51.032;3.712;2023-11-19T04:55:05;12;92
74458;SHT31;62896;51.032;3.712;2023-11-19T04:58:25;12;92
74458;SHT31;62896;51.032;3.712;2023-11-19T05:01:46;11.8;93
74458;SHT31;62896;51.032;3.712;2023-11-19T05:05:05;11.8;93
74458;SHT31;62896;51.032;3.712;2023-11-19T05:08:25;11.8;93
74458;SHT31;62896;51.032;3.712;2023-11-19T05:11:45;11.7;93
74458;SHT31;62896;51.032;3.712;2023-11-19T05:15:05;11.7;93
74458;SHT31;62896;51.032;3.712;2023-11-19T05:18:25;11.7;93
74458;SHT31;62896;51.032;3.712;2023-11-19T05:21:45;11.6;93
74458;SHT31;62896;51.032;3.712;2023-11-19T05:25:05;11.6;93
74458;SHT31;62896;51.032;3.712;2023-11-19T05:28:25;11.6;93
74458;SHT31;62896;51.032;3.712;2023-11-19T05:31:45;11.5;94
74458;SHT31;62896;51.032;3.712;2023-11-19T05:35:05;11.5;94
74458;SHT31;62896;51.032;3.712;2023-11-19T05:38:25;11.5;94
74458;SHT31;62896;51.032;3.712;2023-11-19T05:41:45;11.5;94
74458;SHT31;62896;51.032;3.712;2023-11-19T05:45:05;11.5;94
74458;SHT31;62896;51.032;3.712;2023-11-19T05:48:25;11.5;94
74458;SHT31;62896;51.032;3.712;2023-11-19T05:51:45;11.5;93
74458;SHT31;62896;51.032;3.712;2023-11-19T05:55:05;11.5;93
74458;SHT31;62896;51.032;3.712;2023-11-19T05:58:25;11.5;93
74458;SHT31;62896;51.032;3.712;2023-11-19T06:01:45;11.4;93
74458;SHT31;62896;51.032;3.712;2023-11-19T06:05:05;11.4;93
74458;SHT31;62896;51.032;3.712;2023-11-19T06:08:25;11.4;93
74458;SHT31;62896;51.032;3.712;2023-11-19T06:11:45;11.3;93
74458;SHT31;62896;51.032;3.712;2023-11-19T06:15:05;11.3;93
74458;SHT31;62896;51.032;3.712;2023-11-19T06:18:25;11.3;93
74458;SHT31;62896;51.032;3.712;2023-11-19T06:21:45;11.2;94
74458;SHT31;62896;51.032;3.712;2023-11-19T06:25:05;11.2;94
74458;SHT31;62896;51.032;3.712;2023-11-19T06:28:25;11.2;94
74458;SHT31;62896;51.032;3.712;2023-11-19T06:31:45;11.2;93
74458;SHT31;62896;51.032;3.712;2023-11-19T06:35:05;11.2;93
74458;SHT31;62896;51.032;3.712;2023-11-19T06:38:25;11.2;93
74458;SHT31;62896;51.032;3.712;2023-11-19T06:41:45;11.2;94
74458;SHT31;62896;51.032;3.712;2023-11-19T06:45:05;11.2;94
74458;SHT31;62896;51.032;3.712;2023-11-19T06:48:25;11.2;94
74458;SHT31;62896;51.032;3.712;2023-11-19T06:51:45;11;94
74458;SHT31;62896;51.032;3.712;2023-11-19T06:55:05;11;94
74458;SHT31;62896;51.032;3.712;2023-11-19T06:58:25;11;94
74458;SHT31;62896;51.032;3.712;2023-11-19T07:01:45;11;95
74458;SHT31;62896;51.032;3.712;2023-11-19T07:05:05;11;95
74458;SHT31;62896;51.032;3.712;2023-11-19T07:08:25;11;95
74458;SHT31;62896;51.032;3.712;2023-11-19T07:11:45;11;96
74458;SHT31;62896;51.032;3.712;2023-11-19T07:15:05;11;96
74458;SHT31;62896;51.032;3.712;2023-11-19T07:18:25;11;96
74458;SHT31;62896;51.032;3.712;2023-11-19T07:21:45;11.1;96
74458;SHT31;62896;51.032;3.712;2023-11-19T07:25:05;11.1;96
74458;SHT31;62896;51.032;3.712;2023-11-19T07:28:25;11.1;96
74458;SHT31;62896;51.032;3.712;2023-11-19T07:31:45;11.2;96
74458;SHT31;62896;51.032;3.712;2023-11-19T07:35:05;11.2;96
74458;SHT31;62896;51.032;3.712;2023-11-19T07:38:25;11.2;96
74458;SHT31;62896;51.032;3.712;2023-11-19T07:41:45;11.5;95
74458;SHT31;62896;51.032;3.712;2023-11-19T07:45:05;11.5;95
74458;SHT31;62896;51.032;3.712;2023-11-19T07:48:25;11.5;95
74458;SHT31;62896;51.032;3.712;2023-11-19T07:51:45;11.6;94
74458;SHT31;62896;51.032;3.712;2023-11-19T07:55:05;11.6;94
74458;SHT31;62896;51.032;3.712;2023-11-19T07:58:25;11.6;94
74458;SHT31;62896;51.032;3.712;2023-11-19T08:01:45;11.7;94
74458;SHT31;62896;51.032;3.712;2023-11-19T08:05:05;11.7;94
74458;SHT31;62896;51.032;3.712;2023-11-19T08:08:25;11.7;94
74458;SHT31;62896;51.032;3.712;2023-11-19T08:11:45;11.8;94
74458;SHT31;62896;51.032;3.712;2023-11-19T08:15:05;11.8;94
74458;SHT31;62896;51.032;3.712;2023-11-19T08:18:25;11.8;94
74458;SHT31;62896;51.032;3.712;2023-11-19T08:21:45;11.8;94
74458;SHT31;62896;51.032;3.712;2023-11-19T08:25:05;11.8;94
74458;SHT31;62896;51.032;3.712;2023-11-19T08:28:25;11.8;94
74458;SHT31;62896;51.032;3.712;2023-11-19T08:31:45;11.8;94
74458;SHT31;62896;51.032;3.712;2023-11-19T08:35:05;11.8;94
74458;SHT31;62896;51.032;3.712;2023-11-19T08:38:25;11.8;94
74458;SHT31;62896;51.032;3.712;2023-11-19T08:41:45;12.2;93
74458;SHT31;62896;51.032;3.712;2023-11-19T08:45:05;12.2;93
74458;SHT31;62896;51.032;3.712;2023-11-19T08:48:25;12.2;93
74458;SHT31;62896;51.032;3.712;2023-11-19T08:51:45;12.5;91
74458;SHT31;62896;51.032;3.712;2023-11-19T08:55:05;12.5;91
74458;SHT31;62896;51.032;3.712;2023-11-19T08:58:25;12.5;91
74458;SHT31;62896;51.032;3.712;2023-11-19T09:01:45;12.8;91
74458;SHT31;62896;51.032;3.712;2023-11-19T09:05:05;12.8;91
74458;SHT31;62896;51.032;3.712;2023-11-19T09:08:25;12.8;91
74458;SHT31;62896;51.032;3.712;2023-11-19T09:11:45;12.9;91
74458;SHT31;62896;51.032;3.712;2023-11-19T09:15:05;12.9;91
74458;SHT31;62896;51.032;3.712;2023-11-19T09:18:25;12.9;91
74458;SHT31;62896;51.032;3.712;2023-11-19T09:21:45;12.9;91
74458;SHT31;62896;51.032;3.712;2023-11-19T09:25:05;12.9;91
74458;SHT31;62896;51.032;3.712;2023-11-19T09:28:25;12.9;91
74458;SHT31;62896;51.032;3.712;2023-11-19T09:31:45;12.6;92
74458;SHT31;62896;51.032;3.712;2023-11-19T09:35:05;12.6;92
74458;SHT31;62896;51.032;3.712;2023-11-19T09:38:25;12.6;92
74458;SHT31;62896;51.032;3.712;2023-11-19T09:41:45;12.5;94
74458;SHT31;62896;51.032;3.712;2023-11-19T09:45:05;12.5;94
74458;SHT31;62896;51.032;3.712;2023-11-19T09:48:25;12.5;94
74458;SHT31;62896;51.032;3.712;2023-11-19T09:51:45;13;93
74458;SHT31;62896;51.032;3.712;2023-11-19T09:55:05;13;93
74458;SHT31;62896;51.032;3.712;2023-11-19T09:58:25;13;93
74458;SHT31;62896;51.032;3.712;2023-11-19T10:01:45;12.9;93
74458;SHT31;62896;51.032;3.712;2023-11-19T10:05:06;12.9;93
74458;SHT31;62896;51.032;3.712;2023-11-19T10:08:25;12.9;93
74458;SHT31;62896;51.032;3.712;2023-11-19T10:11:45;12.6;93
74458;SHT31;62896;51.032;3.712;2023-11-19T10:15:05;12.6;93
74458;SHT31;62896;51.032;3.712;2023-11-19T10:18:25;12.6;93
74458;SHT31;62896;51.032;3.712;2023-11-19T10:21:45;12.4;94
74458;SHT31;62896;51.032;3.712;2023-11-19T10:25:05;12.4;94
74458;SHT31;62896;51.032;3.712;2023-11-19T10:28:25;12.4;94
74458;SHT31;62896;51.032;3.712;2023-11-19T10:31:50;12.5;95
74458;SHT31;62896;51.032;3.712;2023-11-19T10:35:05;12.5;95
74458;SHT31;62896;51.032;3.712;2023-11-19T10:38:25;12.5;95
74458;SHT31;62896;51.032;3.712;2023-11-19T10:41:45;12.7;93
74458;SHT31;62896;51.032;3.712;2023-11-19T10:45:05;12.7;93
74458;SHT31;62896;51.032;3.712;2023-11-19T10:48:25;12.7;93
74458;SHT31;62896;51.032;3.712;2023-11-19T10:51:45;12.9;92
74458;SHT31;62896;51.032;3.712;2023-11-19T10:55:05;12.9;92
74458;SHT31;62896;51.032;3.712;2023-11-19T10:58:25;12.9;92
74458;SHT31;62896;51.032;3.712;2023-11-19T11:01:45;13.3;90
74458;SHT31;62896;51.032;3.712;2023-11-19T11:05:05;13.3;90
74458;SHT31;62896;51.032;3.712;2023-11-19T11:08:25;13.3;90
74458;SHT31;62896;51.032;3.712;2023-11-19T11:11:46;13.8;89
74458;SHT31;62896;51.032;3.712;2023-11-19T11:15:05;13.8;89
74458;SHT31;62896;51.032;3.712;2023-11-19T11:18:25;13.8;89
74458;SHT31;62896;51.032;3.712;2023-11-19T11:21:46;14.4;86
74458;SHT31;62896;51.032;3.712;2023-11-19T11:25:11;14.4;86
74458;SHT31;62896;51.032;3.712;2023-11-19T11:28:26;14.4;86
74458;SHT31;62896;51.032;3.712;2023-11-19T11:31:48;13.9;88
74458;SHT31;62896;51.032;3.712;2023-11-19T11:35:43;13.9;88
74458;SHT31;62896;51.032;3.712;2023-11-19T11:38:25;13.9;88
74458;SHT31;62896;51.032;3.712;2023-11-19T11:41:45;13.2;92
74458;SHT31;62896;51.032;3.712;2023-11-19T11:45:05;13.2;92
74458;SHT31;62896;51.032;3.712;2023-11-19T11:48:25;13.2;92
74458;SHT31;62896;51.032;3.712;2023-11-19T11:52:00;12.9;94
74458;SHT31;62896;51.032;3.712;2023-11-19T11:55:05;12.9;94
74458;SHT31;62896;51.032;3.712;2023-11-19T11:58:26;12.9;94
74458;SHT31;62896;51.032;3.712;2023-11-19T12:01:56;12.8;94
74458;SHT31;62896;51.032;3.712;2023-11-19T12:05:05;12.8;94
74458;SHT31;62896;51.032;3.712;2023-11-19T12:08:26;12.8;94
74458;SHT31;62896;51.032;3.712;2023-11-19T12:11:47;13.9;91
74458;SHT31;62896;51.032;3.712;2023-11-19T12:15:06;13.9;91
74458;SHT31;62896;51.032;3.712;2023-11-19T12:18:26;13.9;91
74458;SHT31;62896;51.032;3.712;2023-11-19T12:21:45;14.8;86
74458;SHT31;62896;51.032;3.712;2023-11-19T12:25:05;14.8;86
74458;SHT31;62896;51.032;3.712;2023-11-19T12:28:25;14.8;86
74458;SHT31;62896;51.032;3.712;2023-11-19T12:31:53;14.1;88
74458;SHT31;62896;51.032;3.712;2023-11-19T12:35:05;14.1;88
74458;SHT31;62896;51.032;3.712;2023-11-19T12:38:25;14.1;88
74458;SHT31;62896;51.032;3.712;2023-11-19T12:41:48;13.2;91
74458;SHT31;62896;51.032;3.712;2023-11-19T12:45:05;13.2;91
74458;SHT31;62896;51.032;3.712;2023-11-19T12:48:25;13.2;91
74458;SHT31;62896;51.032;3.712;2023-11-19T12:51:45;13;93
74458;SHT31;62896;51.032;3.712;2023-11-19T12:55:06;13;93
74458;SHT31;62896;51.032;3.712;2023-11-19T12:58:28;13;93
74458;SHT31;62896;51.032;3.712;2023-11-19T13:01:53;14.6;88
74458;SHT31;62896;51.032;3.712;2023-11-19T13:05:19;14.6;88
74458;SHT31;62896;51.032;3.712;2023-11-19T13:08:25;14.6;88
74458;SHT31;62896;51.032;3.712;2023-11-19T13:11:45;17;77
74458;SHT31;62896;51.032;3.712;2023-11-19T13:15:05;17;77
74458;SHT31;62896;51.032;3.712;2023-11-19T13:18:25;17;77
74458;SHT31;62896;51.032;3.712;2023-11-19T13:21:45;15.7;80
74458;SHT31;62896;51.032;3.712;2023-11-19T13:25:05;15.7;80
74458;SHT31;62896;51.032;3.712;2023-11-19T13:28:25;15.7;80
74458;SHT31;62896;51.032;3.712;2023-11-19T13:31:45;14;87
74458;SHT31;62896;51.032;3.712;2023-11-19T13:35:06;14;87
74458;SHT31;62896;51.032;3.712;2023-11-19T13:38:25;14;87
74458;SHT31;62896;51.032;3.712;2023-11-19T13:41:45;13.4;89
74458;SHT31;62896;51.032;3.712;2023-11-19T13:45:05;13.4;89
74458;SHT31;62896;51.032;3.712;2023-11-19T13:48:25;13.4;89
74458;SHT31;62896;51.032;3.712;2023-11-19T13:51:45;13.2;89
74458;SHT31;62896;51.032;3.712;2023-11-19T13:55:06;13.2;89
74458;SHT31;62896;51.032;3.712;2023-11-19T13:58:25;13.2;89
74458;SHT31;62896;51.032;3.712;2023-11-19T14:01:45;12.8;94
74458;SHT31;62896;51.032;3.712;2023-11-19T14:05:05;12.8;94
74458;SHT31;62896;51.032;3.712;2023-11-19T14:08:25;12.8;94
74458;SHT31;62896;51.032;3.712;2023-11-19T14:11:45;12.3;98
74458;SHT31;62896;51.032;3.712;2023-11-19T14:15:05;12.3;98
74458;SHT31;62896;51.032;3.712;2023-11-19T14:18:25;12.3;98
74458;SHT31;62896;51.032;3.712;2023-11-19T14:21:45;12.6;96
74458;SHT31;62896;51.032;3.712;2023-11-19T14:25:05;12.6;96
74458;SHT31;62896;51.032;3.712;2023-11-19T14:28:25;12.6;96
74458;SHT31;62896;51.032;3.712;2023-11-19T14:31:45;12.4;96
74458;SHT31;62896;51.032;3.712;2023-11-19T14:35:05;12.4;96
74458;SHT31;62896;51.032;3.712;2023-11-19T14:38:25;12.4;96
74458;SHT31;62896;51.032;3.712;2023-11-19T14:41:45;12.4;95
74458;SHT31;62896;51.032;3.712;2023-11-19T14:45:05;12.4;95
74458;SHT31;62896;51.032;3.712;2023-11-19T14:48:25;12.4;95
74458;SHT31;62896;51.032;3.712;2023-11-19T14:51:45;12.5;93
74458;SHT31;62896;51.032;3.712;2023-11-19T14:55:05;12.5;93
74458;SHT31;62896;51.032;3.712;2023-11-19T14:58:25;12.5;93
74458;SHT31;62896;51.032;3.712;2023-11-19T15:01:45;12.6;92
74458;SHT31;62896;51.032;3.712;2023-11-19T15:05:05;12.6;92
74458;SHT31;62896;51.032;3.712;2023-11-19T15:08:25;12.6;92
74458;SHT31;62896;51.032;3.712;2023-11-19T15:11:45;12.6;92
74458;SHT31;62896;51.032;3.712;2023-11-19T15:15:06;12.6;92
74458;SHT31;62896;51.032;3.712;2023-11-19T15:18:25;12.6;92
74458;SHT31;62896;51.032;3.712;2023-11-19T15:21:45;12.5;91
74458;SHT31;62896;51.032;3.712;2023-11-19T15:25:05;12.5;91
74458;SHT31;62896;51.032;3.712;2023-11-19T15:28:25;12.5;91
74458;SHT31;62896;51.032;3.712;2023-11-19T15:31:45;12.1;95
74458;SHT31;62896;51.032;3.712;2023-11-19T15:35:05;12.1;95
74458;SHT31;62896;51.032;3.712;2023-11-19T15:38:25;12.1;95
74458;SHT31;62896;51.032;3.712;2023-11-19T15:41:45;11.9;97
74458;SHT31;62896;51.032;3.712;2023-11-19T15:45:05;11.9;97
74458;SHT31;62896;51.032;3.712;2023-11-19T15:48:25;11.9;97
74458;SHT31;62896;51.032;3.712;2023-11-19T15:51:45;12;95
74458;SHT31;62896;51.032;3.712;2023-11-19T15:55:05;12;95
74458;SHT31;62896;51.032;3.712;2023-11-19T15:58:25;12;95
74458;SHT31;62896;51.032;3.712;2023-11-19T16:01:45;12.1;94
74458;SHT31;62896;51.032;3.712;2023-11-19T16:05:05;12.1;94
74458;SHT31;62896;51.032;3.712;2023-11-19T16:08:25;12.1;94
74458;SHT31;62896;51.032;3.712;2023-11-19T16:11:45;12.2;93
74458;SHT31;62896;51.032;3.712;2023-11-19T16:15:05;12.2;93
74458;SHT31;62896;51.032;3.712;2023-11-19T16:18:25;12.2;93
74458;SHT31;62896;51.032;3.712;2023-11-19T16:21:45;12.2;93
74458;SHT31;62896;51.032;3.712;2023-11-19T16:25:05;12.2;93
74458;SHT31;62896;51.032;3.712;2023-11-19T16:28:25;12.2;93
74458;SHT31;62896;51.032;3.712;2023-11-19T16:31:45;12.1;94
74458;SHT31;62896;51.032;3.712;2023-11-19T16:35:05;12.1;94
74458;SHT31;62896;51.032;3.712;2023-11-19T16:38:25;12.1;94
74458;SHT31;62896;51.032;3.712;2023-11-19T16:41:45;12.1;94
74458;SHT31;62896;51.032;3.712;2023-11-19T16:45:05;12.1;94
74458;SHT31;62896;51.032;3.712;2023-11-19T16:48:25;12.1;94
74458;SHT31;62896;51.032;3.712;2023-11-19T16:51:45;12.1;94
74458;SHT31;62896;51.032;3.712;2023-11-19T16:55:05;12.1;94
74458;SHT31;62896;51.032;3.712;2023-11-19T16:58:25;12.1;94
74458;SHT31;62896;51.032;3.712;2023-11-19T17:01:45;12;96
74458;SHT31;62896;51.032;3.712;2023-11-19T17:05:05;12;96
74458;SHT31;62896;51.032;3.712;2023-11-19T17:08:25;12;96
74458;SHT31;62896;51.032;3.712;2023-11-19T17:11:45;11.8;97
74458;SHT31;62896;51.032;3.712;2023-11-19T17:15:05;11.8;97
74458;SHT31;62896;51.032;3.712;2023-11-19T17:18:25;11.8;97
74458;SHT31;62896;51.032;3.712;2023-11-19T17:21:45;11.9;97
74458;SHT31;62896;51.032;3.712;2023-11-19T17:25:06;11.9;97
74458;SHT31;62896;51.032;3.712;2023-11-19T17:28:25;11.9;97
74458;SHT31;62896;51.032;3.712;2023-11-19T17:31:45;11.9;97
74458;SHT31;62896;51.032;3.712;2023-11-19T17:35:05;11.9;97
74458;SHT31;62896;51.032;3.712;2023-11-19T17:38:25;11.9;97
74458;SHT31;62896;51.032;3.712;2023-11-19T17:41:45;12;96
74458;SHT31;62896;51.032;3.712;2023-11-19T17:45:05;12;96
74458;SHT31;62896;51.032;3.712;2023-11-19T17:48:25;12;96
74458;SHT31;62896;51.032;3.712;2023-11-19T17:51:45;12.1;96
74458;SHT31;62896;51.032;3.712;2023-11-19T17:55:05;12.1;96
74458;SHT31;62896;51.032;3.712;2023-11-19T17:58:25;12.1;96
74458;SHT31;62896;51.032;3.712;2023-11-19T18:01:45;12.2;95
74458;SHT31;62896;51.032;3.712;2023-11-19T18:05:05;12.2;95
74458;SHT31;62896;51.032;3.712;2023-11-19T18:08:25;12.2;95
74458;SHT31;62896;51.032;3.712;2023-11-19T18:11:45;12.2;94
74458;SHT31;62896;51.032;3.712;2023-11-19T18:15:05;12.2;94
74458;SHT31;62896;51.032;3.712;2023-11-19T18:18:25;12.2;94
74458;SHT31;62896;51.032;3.712;2023-11-19T18:21:45;12.3;94
74458;SHT31;62896;51.032;3.712;2023-11-19T18:25:05;12.3;94
74458;SHT31;62896;51.032;3.712;2023-11-19T18:28:25;12.3;94
74458;SHT31;62896;51.032;3.712;2023-11-19T18:31:45;12.4;93
74458;SHT31;62896;51.032;3.712;2023-11-19T18:35:05;12.4;93
74458;SHT31;62896;51.032;3.712;2023-11-19T18:38:25;12.4;93
74458;SHT31;62896;51.032;3.712;2023-11-19T18:41:45;12.3;94
74458;SHT31;62896;51.032;3.712;2023-11-19T18:45:05;12.3;94
74458;SHT31;62896;51.032;3.712;2023-11-19T18:48:25;12.3;94
74458;SHT31;62896;51.032;3.712;2023-11-19T18:51:45;12.3;94
74458;SHT31;62896;51.032;3.712;2023-11-19T18:55:05;12.3;94
74458;SHT31;62896;51.032;3.712;2023-11-19T18:58:25;12.3;94
74458;SHT31;62896;51.032;3.712;2023-11-19T19:01:45;12.3;95
74458;SHT31;62896;51.032;3.712;2023-11-19T19:05:05;12.3;95
74458;SHT31;62896;51.032;3.712;2023-11-19T19:08:25;12.3;95
74458;SHT31;62896;51.032;3.712;2023-11-19T19:11:45;12.3;95
74458;SHT31;62896;51.032;3.712;2023-11-19T19:15:05;12.3;95
74458;SHT31;62896;51.032;3.712;2023-11-19T19:18:25;12.3;95
74458;SHT31;62896;51.032;3.712;2023-11-19T19:21:45;12.4;93
74458;SHT31;62896;51.032;3.712;2023-11-19T19:25:05;12.4;93
74458;SHT31;62896;51.032;3.712;2023-11-19T19:28:25;12.4;93
74458;SHT31;62896;51.032;3.712;2023-11-19T19:31:45;12.5;93
74458;SHT31;62896;51.032;3.712;2023-11-19T19:35:05;12.5;93
74458;SHT31;62896;51.032;3.712;2023-11-19T19:38:25;12.5;93
74458;SHT31;62896;51.032;3.712;2023-11-19T19:41:45;12.5;93
74458;SHT31;62896;51.032;3.712;2023-11-19T19:45:05;12.5;93
74458;SHT31;62896;51.032;3.712;2023-11-19T19:48:25;12.5;93
74458;SHT31;62896;51.032;3.712;2023-11-19T19:51:45;12.5;93
74458;SHT31;62896;51.032;3.712;2023-11-19T19:55:06;12.5;93
74458;SHT31;62896;51.032;3.712;2023-11-19T19:58:25;12.5;93
74458;SHT31;62896;51.032;3.712;2023-11-19T20:01:45;12.4;93
74458;SHT31;62896;51.032;3.712;2023-11-19T20:05:05;12.4;93
74458;SHT31;62896;51.032;3.712;2023-11-19T20:08:25;12.4;93
74458;SHT31;62896;51.032;3.712;2023-11-19T20:11:45;12.4;93
74458;SHT31;62896;51.032;3.712;2023-11-19T20:15:06;12.4;93
74458;SHT31;62896;51.032;3.712;2023-11-19T20:18:25;12.4;93
74458;SHT31;62896;51.032;3.712;2023-11-19T20:21:45;12.5;93
74458;SHT31;62896;51.032;3.712;2023-11-19T20:25:05;12.5;93
74458;SHT31;62896;51.032;3.712;2023-11-19T20:28:25;12.5;93
74458;SHT31;62896;51.032;3.712;2023-11-19T20:31:45;12.5;93
74458;SHT31;62896;51.032;3.712;2023-11-19T20:35:05;12.5;93
74458;SHT31;62896;51.032;3.712;2023-11-19T20:38:25;12.5;93
74458;SHT31;62896;51.032;3.712;2023-11-19T20:41:45;12.4;93
74458;SHT31;62896;51.032;3.712;2023-11-19T20:45:06;12.4;93
74458;SHT31;62896;51.032;3.712;2023-11-19T20:48:25;12.4;93
74458;SHT31;62896;51.032;3.712;2023-11-19T20:51:45;12.4;94
74458;SHT31;62896;51.032;3.712;2023-11-19T20:55:05;12.4;94
74458;SHT31;62896;51.032;3.712;2023-11-19T20:58:25;12.4;94
74458;SHT31;62896;51.032;3.712;2023-11-19T21:01:45;12.4;94
74458;SHT31;62896;51.032;3.712;2023-11-19T21:05:06;12.4;94
74458;SHT31;62896;51.032;3.712;2023-11-19T21:08:25;12.4;94
74458;SHT31;62896;51.032;3.712;2023-11-19T21:11:45;12.4;94
74458;SHT31;62896;51.032;3.712;2023-11-19T21:15:06;12.4;94
74458;SHT31;62896;51.032;3.712;2023-11-19T21:18:25;12.4;94
74458;SHT31;62896;51.032;3.712;2023-11-19T21:21:45;12.3;94
74458;SHT31;62896;51.032;3.712;2023-11-19T21:25:05;12.3;94
74458;SHT31;62896;51.032;3.712;2023-11-19T21:28:25;12.3;94
74458;SHT31;62896;51.032;3.712;2023-11-19T21:31:45;12.3;93
74458;SHT31;62896;51.032;3.712;2023-11-19T21:35:05;12.3;93
74458;SHT31;62896;51.032;3.712;2023-11-19T21:38:25;12.3;93
74458;SHT31;62896;51.032;3.712;2023-11-19T21:41:45;12.2;93
74458;SHT31;62896;51.032;3.712;2023-11-19T21:45:06;12.2;93
74458;SHT31;62896;51.032;3.712;2023-11-19T21:48:25;12.2;93
74458;SHT31;62896;51.032;3.712;2023-11-19T21:51:45;12.2;92
74458;SHT31;62896;51.032;3.712;2023-11-19T21:55:05;12.2;92
74458;SHT31;62896;51.032;3.712;2023-11-19T21:58:25;12.2;92
74458;SHT31;62896;51.032;3.712;2023-11-19T22:01:45;12.2;93
74458;SHT31;62896;51.032;3.712;2023-11-19T22:05:07;12.2;93
74458;SHT31;62896;51.032;3.712;2023-11-19T22:08:25;12.2;93
74458;SHT31;62896;51.032;3.712;2023-11-19T22:11:45;12.3;92
74458;SHT31;62896;51.032;3.712;2023-11-19T22:15:06;12.3;92
74458;SHT31;62896;51.032;3.712;2023-11-19T22:18:25;12.3;92
74458;SHT31;62896;51.032;3.712;2023-11-19T22:21:45;12.2;94
74458;SHT31;62896;51.032;3.712;2023-11-19T22:25:05;12.2;94
74458;SHT31;62896;51.032;3.712;2023-11-19T22:28:25;12.2;94
74458;SHT31;62896;51.032;3.712;2023-11-19T22:31:45;11.9;96